Alden, Wisconsin
Current Conditions -  °F | °C
As of 8:35 PM on Sunday 21 Dec 2014 (Local Time) from KRNH Reporting Station
Haze Haze  
Wind Chill: 28°   Ceiling: 800
Heat Index: 35°   Visibility: 4mi
Dew Point: 35°   Wind: 9mph
Humidity: 100%   Direction: 140°SE
Pressure: 29.75"   Gusts: NA
Location:  45.1804°N, 92.551°W
Report Text: KRNH 220235Z AUTO 14008KT 4SM BR OVC008 02/02 A2975 RMK AO2 T00180018
Loading
Personal Weather Stations






























Interactive Weather Map New forecast layout! Learn more

10-Day Weather Forecast

Advertisements
Track Severe Weather on mobile